Time;durP1;ratioP1;P1;durP2;ratioP2;P2;SDS_P1;SDS_P2;PMS_P1;PMS_P2;Temp;Humidity;BMP_temperature;BMP_pressure;BME280_temperature;BME280_humidity;BME280_pressure;Samples;Min_cycle;Max_cycle;Signal;HPM_P1;HPM_P2
2022/04/13 00:01:55;;;;;;;;;;;23.00;30.80;;;;;;4965988;28;19965;-67
2022/04/13 00:04:22;;;;;;;;;;;23.00;30.80;;;;;;4966370;28;19926;-67
2022/04/13 00:06:49;;;;;;;;;;;23.00;30.80;;;;;;4965600;28;19926;-67
2022/04/13 00:09:16;;;;;;;;;;;23.00;30.80;;;;;;4966051;28;20336;-68
2022/04/13 00:11:43;;;;;;;;;;;23.00;30.80;;;;;;4965588;28;20310;-67
2022/04/13 00:14:10;;;;;;;;;;;23.00;30.70;;;;;;4965342;28;19992;-67
2022/04/13 00:16:37;;;;;;;;;;;23.10;30.80;;;;;;4965733;28;20597;-67
2022/04/13 00:19:04;;;;;;;;;;;23.10;30.80;;;;;;4965736;28;20149;-67
2022/04/13 00:21:31;;;;;;;;;;;23.00;30.70;;;;;;4965395;28;19926;-68
2022/04/13 00:23:58;;;;;;;;;;;23.00;30.70;;;;;;4965286;28;19984;-67
2022/04/13 00:26:26;;;;;;;;;;;23.00;30.70;;;;;;4965325;28;20135;-67
2022/04/13 00:28:53;;;;;;;;;;;23.00;30.70;;;;;;4964510;28;20169;-67
2022/04/13 00:31:20;;;;;;;;;;;23.00;30.70;;;;;;4960998;28;19934;-68
2022/04/13 00:33:47;;;;;;;;;;;23.00;30.70;;;;;;4965895;28;19926;-67
2022/04/13 00:36:14;;;;;;;;;;;23.00;30.70;;;;;;4965640;28;19926;-67
2022/04/13 00:38:41;;;;;;;;;;;23.00;30.80;;;;;;4965690;28;20022;-67
2022/04/13 00:41:08;;;;;;;;;;;23.00;30.70;;;;;;4964743;28;20337;-67
2022/04/13 00:43:35;;;;;;;;;;;23.00;30.70;;;;;;4965389;28;19934;-67
2022/04/13 00:46:02;;;;;;;;;;;23.00;30.80;;;;;;4964878;28;19930;-67
2022/04/13 00:48:37;;;;;;;;;;;23.00;30.80;;;;;;4965272;28;19926;-67
2022/04/13 00:51:04;;;;;;;;;;;23.00;30.80;;;;;;4965225;28;19973;-67
2022/04/13 00:53:31;;;;;;;;;;;23.00;30.80;;;;;;4965327;28;20225;-68
2022/04/13 00:55:58;;;;;;;;;;;23.00;30.80;;;;;;4964895;28;20388;-67
2022/04/13 00:58:27;;;;;;;;;;;23.00;30.80;;;;;;4964634;28;19926;-68
2022/04/13 01:00:55;;;;;;;;;;;23.00;30.80;;;;;;4964103;28;19988;-67
2022/04/13 01:03:24;;;;;;;;;;;23.00;30.80;;;;;;4960603;28;19992;-67
2022/04/13 01:05:52;;;;;;;;;;;23.00;30.80;;;;;;4964937;28;20021;-67
2022/04/13 01:08:19;;;;;;;;;;;23.00;30.80;;;;;;4965387;28;19926;-67
2022/04/13 01:10:47;;;;;;;;;;;23.00;30.80;;;;;;4964519;28;20003;-67
2022/04/13 01:13:15;;;;;;;;;;;23.00;30.80;;;;;;4965189;28;20413;-67
2022/04/13 01:15:42;;;;;;;;;;;23.00;30.80;;;;;;4964475;28;19934;-67
2022/04/13 01:18:09;;;;;;;;;;;22.90;30.80;;;;;;4964805;28;19929;-67
2022/04/13 01:20:39;;;;;;;;;;;22.90;30.90;;;;;;4964319;28;20425;-67
2022/04/13 01:23:06;;;;;;;;;;;22.90;30.90;;;;;;4964817;28;20348;-67
2022/04/13 01:25:34;;;;;;;;;;;22.90;31.00;;;;;;4964663;28;19926;-67
2022/04/13 01:28:01;;;;;;;;;;;22.80;30.90;;;;;;4964523;28;19926;-67
2022/04/13 01:30:28;;;;;;;;;;;22.80;31.20;;;;;;4963977;28;20514;-67
2022/04/13 01:32:55;;;;;;;;;;;22.80;31.00;;;;;;4962543;28;19926;-67
2022/04/13 01:35:23;;;;;;;;;;;22.80;31.10;;;;;;4961309;28;19930;-67
2022/04/13 01:37:50;;;;;;;;;;;22.80;31.10;;;;;;4964662;28;20374;-66
2022/04/13 01:40:17;;;;;;;;;;;22.80;31.10;;;;;;4964618;28;19926;-66
2022/04/13 01:42:47;;;;;;;;;;;22.80;31.10;;;;;;4964601;28;19988;-66
2022/04/13 01:45:19;;;;;;;;;;;22.80;31.20;;;;;;4963831;28;20368;-67
2022/04/13 01:47:47;;;;;;;;;;;22.80;31.10;;;;;;4963978;28;19949;-66
2022/04/13 01:50:16;;;;;;;;;;;22.80;31.10;;;;;;4964433;28;19949;-67
2022/04/13 01:52:43;;;;;;;;;;;22.80;31.10;;;;;;4964311;28;20063;-68
2022/04/13 01:55:11;;;;;;;;;;;22.80;31.10;;;;;;4964139;28;20339;-67
2022/04/13 01:57:38;;;;;;;;;;;22.80;31.00;;;;;;4964557;28;20286;-68
2022/04/13 02:00:06;;;;;;;;;;;22.90;31.00;;;;;;4963715;28;19930;-67
2022/04/13 02:02:33;;;;;;;;;;;22.90;31.00;;;;;;4963737;28;19995;-68
2022/04/13 02:05:01;;;;;;;;;;;22.90;31.00;;;;;;4960226;28;19927;-67
2022/04/13 02:07:28;;;;;;;;;;;22.90;31.00;;;;;;4963639;28;20021;-67
2022/04/13 02:09:55;;;;;;;;;;;22.90;31.00;;;;;;4964055;28;19970;-67
2022/04/13 02:12:22;;;;;;;;;;;22.90;31.00;;;;;;4964131;28;19957;-67
2022/04/13 02:14:49;;;;;;;;;;;22.90;31.00;;;;;;4964042;28;19927;-67
2022/04/13 02:17:16;;;;;;;;;;;22.90;31.00;;;;;;4963299;28;20390;-67
2022/04/13 02:19:44;;;;;;;;;;;22.90;31.00;;;;;;4963981;28;19926;-68
2022/04/13 02:22:11;;;;;;;;;;;22.90;31.00;;;;;;4963637;28;19973;-67
2022/04/13 02:25:02;;;;;;;;;;;22.90;31.00;;;;;;4964272;28;19926;-67
2022/04/13 02:27:29;;;;;;;;;;;22.90;31.00;;;;;;4963962;28;19973;-67
2022/04/13 02:29:56;;;;;;;;;;;22.80;30.90;;;;;;4963827;28;19969;-67
2022/04/13 02:32:23;;;;;;;;;;;22.90;31.00;;;;;;4963121;28;19941;-67
2022/04/13 02:34:50;;;;;;;;;;;22.90;31.00;;;;;;4964120;28;19980;-67
2022/04/13 02:37:17;;;;;;;;;;;22.80;30.90;;;;;;4959580;28;19985;-67
2022/04/13 02:39:44;;;;;;;;;;;22.90;31.00;;;;;;4964076;28;20962;-67
2022/04/13 02:42:15;;;;;;;;;;;22.90;31.00;;;;;;4963635;28;20371;-67
2022/04/13 02:44:42;;;;;;;;;;;22.90;31.00;;;;;;4963396;28;19957;-67
2022/04/13 02:47:10;;;;;;;;;;;22.80;31.00;;;;;;4963225;28;19926;-67
2022/04/13 02:49:37;;;;;;;;;;;22.80;31.20;;;;;;4946281;28;20422;-67
2022/04/13 02:52:05;;;;;;;;;;;22.80;31.00;;;;;;4946264;28;19956;-67
2022/04/13 02:54:32;;;;;;;;;;;22.80;31.00;;;;;;4963594;28;20476;-67
2022/04/13 02:56:59;;;;;;;;;;;22.80;31.00;;;;;;4965485;28;19930;-67
2022/04/13 02:59:26;;;;;;;;;;;22.80;31.00;;;;;;4967263;28;19966;-67
2022/04/13 03:01:53;;;;;;;;;;;22.80;31.00;;;;;;4949171;28;20422;-67
2022/04/13 03:04:26;;;;;;;;;;;22.80;31.00;;;;;;4966073;28;19973;-67
2022/04/13 03:06:54;;;;;;;;;;;22.80;31.10;;;;;;4967475;28;19983;-67
2022/04/13 03:09:21;;;;;;;;;;;22.70;31.10;;;;;;4962253;28;20402;-67
2022/04/13 03:11:48;;;;;;;;;;;22.70;31.10;;;;;;4966338;28;20408;-68
2022/04/13 03:14:15;;;;;;;;;;;22.70;31.20;;;;;;4949663;28;20375;-67
2022/04/13 03:16:42;;;;;;;;;;;22.70;31.20;;;;;;4948911;28;20459;-67
2022/04/13 03:19:09;;;;;;;;;;;22.70;31.20;;;;;;4966677;28;20020;-67
2022/04/13 03:21:36;;;;;;;;;;;22.60;31.20;;;;;;4966242;28;19976;-67
2022/04/13 03:24:03;;;;;;;;;;;22.60;31.20;;;;;;4966683;28;19969;-67
2022/04/13 03:26:30;;;;;;;;;;;22.60;31.30;;;;;;4967013;28;20039;-67
2022/04/13 03:28:57;;;;;;;;;;;22.60;31.30;;;;;;4966164;28;20329;-67
2022/04/13 03:31:23;;;;;;;;;;;22.60;31.30;;;;;;4949207;28;19980;-67
2022/04/13 03:33:51;;;;;;;;;;;22.60;31.90;;;;;;4965349;28;20505;-67
2022/04/13 03:36:18;;;;;;;;;;;22.60;31.30;;;;;;4966750;28;19972;-67
2022/04/13 03:38:45;;;;;;;;;;;22.60;31.30;;;;;;4966349;28;19933;-67
2022/04/13 03:41:12;;;;;;;;;;;22.60;31.30;;;;;;4961569;28;19926;-66
2022/04/13 03:43:39;;;;;;;;;;;22.70;31.20;;;;;;4966508;28;19934;-67
2022/04/13 03:46:06;;;;;;;;;;;22.70;31.30;;;;;;4966152;28;19969;-67
2022/04/13 03:48:34;;;;;;;;;;;22.70;31.20;;;;;;4965870;28;19999;-67
2022/04/13 03:51:01;;;;;;;;;;;22.70;31.20;;;;;;4965650;28;19926;-67
2022/04/13 03:53:28;;;;;;;;;;;22.70;31.20;;;;;;4966161;28;20332;-67
2022/04/13 03:55:55;;;;;;;;;;;22.70;31.20;;;;;;4966613;28;19988;-67
2022/04/13 03:58:22;;;;;;;;;;;22.70;31.20;;;;;;4965887;28;20503;-67
2022/04/13 04:00:49;;;;;;;;;;;22.70;31.20;;;;;;4966239;28;19980;-67
2022/04/13 04:03:16;;;;;;;;;;;22.70;31.10;;;;;;4965595;28;20046;-67
2022/04/13 04:05:43;;;;;;;;;;;22.70;31.10;;;;;;4965502;28;19933;-67
2022/04/13 04:08:10;;;;;;;;;;;22.70;31.10;;;;;;4965538;28;20328;-67
2022/04/13 04:10:37;;;;;;;;;;;22.70;31.10;;;;;;4965910;28;19974;-67
2022/04/13 04:13:04;;;;;;;;;;;22.70;31.10;;;;;;4960846;28;19979;-67
2022/04/13 04:15:32;;;;;;;;;;;22.70;31.10;;;;;;4965386;28;20214;-67
2022/04/13 04:17:59;;;;;;;;;;;22.70;31.10;;;;;;4965492;28;20751;-68
2022/04/13 04:20:26;;;;;;;;;;;22.70;31.10;;;;;;4965503;28;20489;-67
2022/04/13 04:22:55;;;;;;;;;;;22.80;31.10;;;;;;4965188;28;20118;-67
2022/04/13 04:25:22;;;;;;;;;;;22.70;31.00;;;;;;4965884;28;20192;-67
2022/04/13 04:27:49;;;;;;;;;;;22.80;31.10;;;;;;4965604;28;19979;-67
2022/04/13 04:30:16;;;;;;;;;;;22.80;31.00;;;;;;4948238;28;20378;-67
2022/04/13 04:32:43;;;;;;;;;;;22.80;31.00;;;;;;4965944;28;20360;-67
2022/04/13 04:35:10;;;;;;;;;;;22.80;31.00;;;;;;4963348;28;20272;-67
2022/04/13 04:37:37;;;;;;;;;;;22.80;30.90;;;;;;4965317;28;20394;-67
2022/04/13 04:40:05;;;;;;;;;;;22.80;30.90;;;;;;4965133;28;20382;-68
2022/04/13 04:42:42;;;;;;;;;;;22.80;30.80;;;;;;4964064;28;19995;-67
2022/04/13 04:45:09;;;;;;;;;;;22.80;30.80;;;;;;4944872;28;19983;-68
2022/04/13 04:47:36;;;;;;;;;;;22.80;30.80;;;;;;4965253;28;20457;-67
2022/04/13 04:50:03;;;;;;;;;;;22.80;30.70;;;;;;4965164;28;20029;-68
2022/04/13 04:52:30;;;;;;;;;;;22.80;30.70;;;;;;4947530;28;19934;-68
2022/04/13 04:54:58;;;;;;;;;;;22.80;30.60;;;;;;4965098;28;19926;-67
2022/04/13 04:57:26;;;;;;;;;;;22.80;30.60;;;;;;4958257;28;20350;-68
2022/04/13 04:59:53;;;;;;;;;;;22.80;30.60;;;;;;4961515;28;19954;-68
2022/04/13 05:02:20;;;;;;;;;;;22.80;30.60;;;;;;4964507;28;20370;-68
2022/04/13 05:04:47;;;;;;;;;;;22.80;30.60;;;;;;4963312;28;19930;-67
2022/04/13 05:07:14;;;;;;;;;;;22.80;30.60;;;;;;4962731;28;19930;-68
2022/04/13 05:09:41;;;;;;;;;;;22.80;30.40;;;;;;4961298;28;19960;-67
2022/04/13 05:12:08;;;;;;;;;;;22.80;30.20;;;;;;4971047;28;21148;-67
2022/04/13 05:14:35;;;;;;;;;;;22.80;30.10;;;;;;4935647;28;19931;-67
2022/04/13 05:17:02;;;;;;;;;;;22.90;30.10;;;;;;4961315;28;19978;-67
2022/04/13 05:19:33;;;;;;;;;;;22.90;30.00;;;;;;4953020;28;19927;-67
2022/04/13 05:22:01;;;;;;;;;;;22.90;30.00;;;;;;4954376;28;19934;-67
2022/04/13 05:24:28;;;;;;;;;;;22.90;29.90;;;;;;4938053;28;19926;-67
2022/04/13 05:26:55;;;;;;;;;;;22.90;29.90;;;;;;4948310;28;19988;-65
2022/04/13 05:29:22;;;;;;;;;;;22.90;30.00;;;;;;4948745;28;19983;-65
2022/04/13 05:31:49;;;;;;;;;;;23.00;30.30;;;;;;4948271;28;20377;-62
2022/04/13 05:34:16;;;;;;;;;;;23.00;30.40;;;;;;4947673;28;19995;-61
2022/04/13 05:36:43;;;;;;;;;;;23.00;30.30;;;;;;4947937;28;19934;-60
2022/04/13 05:39:10;;;;;;;;;;;23.00;30.30;;;;;;4943386;28;19934;-61
2022/04/13 05:41:38;;;;;;;;;;;23.00;30.40;;;;;;4946328;28;19992;-60
2022/04/13 05:44:06;;;;;;;;;;;23.00;30.60;;;;;;4943883;28;19930;-61
2022/04/13 05:46:33;;;;;;;;;;;23.10;30.80;;;;;;4943113;28;20294;-60
2022/04/13 05:49:01;;;;;;;;;;;23.10;30.50;;;;;;4944509;28;20345;-62
2022/04/13 05:51:28;;;;;;;;;;;23.10;30.30;;;;;;4945250;28;21392;-63
2022/04/13 05:53:55;;;;;;;;;;;23.20;30.20;;;;;;4949538;28;19960;-61
2022/04/13 05:56:22;;;;;;;;;;;23.20;30.10;;;;;;4929696;28;21994;-61
2022/04/13 05:58:55;;;;;;;;;;;23.20;30.00;;;;;;4935827;28;19935;-61
2022/04/13 06:01:22;;;;;;;;;;;23.20;30.00;;;;;;4949730;28;19927;-60
2022/04/13 06:03:50;;;;;;;;;;;23.20;29.90;;;;;;4948638;28;19952;-61
2022/04/13 06:06:18;;;;;;;;;;;23.20;30.00;;;;;;4950675;28;19937;-62
2022/04/13 06:08:45;;;;;;;;;;;23.30;30.20;;;;;;4950017;28;19941;-62
2022/04/13 06:11:12;;;;;;;;;;;23.30;30.30;;;;;;4946458;28;19966;-61
2022/04/13 06:13:39;;;;;;;;;;;23.30;30.30;;;;;;4949713;28;20444;-62
2022/04/13 06:16:07;;;;;;;;;;;23.40;30.40;;;;;;4944817;28;20383;-61
2022/04/13 06:18:34;;;;;;;;;;;23.40;30.40;;;;;;4946668;28;20357;-61
2022/04/13 06:21:01;;;;;;;;;;;23.40;30.40;;;;;;4944845;28;20356;-61
2022/04/13 06:23:29;;;;;;;;;;;23.40;30.40;;;;;;4947988;28;19930;-60
2022/04/13 06:25:56;;;;;;;;;;;23.50;30.40;;;;;;4946766;28;20068;-62
2022/04/13 06:28:23;;;;;;;;;;;23.50;30.50;;;;;;4933325;28;19934;-60
2022/04/13 06:30:51;;;;;;;;;;;23.50;30.50;;;;;;4948775;28;20397;-63
2022/04/13 06:33:18;;;;;;;;;;;23.50;30.50;;;;;;4955646;28;19934;-62
2022/04/13 06:35:45;;;;;;;;;;;23.60;30.40;;;;;;4930754;28;19935;-61
2022/04/13 06:38:12;;;;;;;;;;;23.60;30.40;;;;;;4946639;28;20401;-61
2022/04/13 06:40:39;;;;;;;;;;;23.60;30.30;;;;;;4951414;28;19930;-61
2022/04/13 06:43:07;;;;;;;;;;;23.70;30.40;;;;;;4954828;28;19984;-61
2022/04/13 06:45:36;;;;;;;;;;;23.70;30.30;;;;;;4951547;28;19927;-61
2022/04/13 06:48:03;;;;;;;;;;;23.80;30.40;;;;;;4941690;28;19935;-61
2022/04/13 06:50:34;;;;;;;;;;;23.80;30.40;;;;;;4949980;28;19934;-61
2022/04/13 06:53:01;;;;;;;;;;;23.80;30.50;;;;;;4956106;28;19926;-60
2022/04/13 06:55:29;;;;;;;;;;;23.80;30.40;;;;;;4951917;28;19926;-59
2022/04/13 06:57:55;;;;;;;;;;;23.80;30.50;;;;;;4953487;28;19965;-61
2022/04/13 07:00:22;;;;;;;;;;;23.90;30.60;;;;;;4953067;28;19992;-60
2022/04/13 07:02:50;;;;;;;;;;;23.90;30.80;;;;;;4951891;28;20028;-59
2022/04/13 07:05:37;;;;;;;;;;;23.90;30.70;;;;;;4952553;28;19938;-60
2022/04/13 07:08:04;;;;;;;;;;;23.90;30.70;;;;;;4951395;28;19934;-60
2022/04/13 07:10:32;;;;;;;;;;;24.00;30.70;;;;;;4954040;28;19930;-62
2022/04/13 07:13:05;;;;;;;;;;;24.00;30.60;;;;;;4950966;28;19970;-63
2022/04/13 07:15:33;;;;;;;;;;;24.10;30.40;;;;;;4927371;28;19926;-63
2022/04/13 07:18:00;;;;;;;;;;;24.10;30.30;;;;;;4952887;28;19961;-60
2022/04/13 07:20:27;;;;;;;;;;;24.10;30.10;;;;;;4952936;28;20386;-61
2022/04/13 07:22:54;;;;;;;;;;;24.10;30.10;;;;;;4947705;28;19926;-61
2022/04/13 07:25:22;;;;;;;;;;;24.10;30.00;;;;;;4950019;28;19945;-60
2022/04/13 07:27:50;;;;;;;;;;;24.20;29.70;;;;;;4951574;28;19927;-58
2022/04/13 07:30:17;;;;;;;;;;;24.20;29.90;;;;;;4951257;28;19937;-61
2022/04/13 07:32:45;;;;;;;;;;;24.20;30.00;;;;;;4957740;28;19976;-61
2022/04/13 07:35:12;;;;;;;;;;;24.30;29.90;;;;;;4955777;28;19926;-61
2022/04/13 07:37:40;;;;;;;;;;;24.30;29.90;;;;;;4953581;28;19958;-60
2022/04/13 07:40:11;;;;;;;;;;;24.40;29.80;;;;;;4951576;28;19958;-60
2022/04/13 07:42:38;;;;;;;;;;;24.40;29.70;;;;;;4952478;28;19957;-61
2022/04/13 07:45:05;;;;;;;;;;;24.50;30.00;;;;;;4951269;28;19938;-60
2022/04/13 07:47:33;;;;;;;;;;;24.50;29.60;;;;;;4949407;28;19992;-61
2022/04/13 07:50:00;;;;;;;;;;;24.50;29.50;;;;;;4952204;28;19934;-61
2022/04/13 07:52:31;;;;;;;;;;;24.60;29.50;;;;;;4952816;28;19941;-61
2022/04/13 07:54:58;;;;;;;;;;;24.70;29.60;;;;;;4949594;28;19927;-61
2022/04/13 07:57:25;;;;;;;;;;;24.70;29.50;;;;;;4957207;28;19934;-61
2022/04/13 07:59:52;;;;;;;;;;;24.70;29.50;;;;;;4949990;28;19979;-61
2022/04/13 08:02:20;;;;;;;;;;;24.80;29.30;;;;;;4955091;28;19945;-61
2022/04/13 08:04:48;;;;;;;;;;;24.80;29.20;;;;;;4951800;28;19968;-61
2022/04/13 08:07:15;;;;;;;;;;;24.90;29.20;;;;;;4952738;28;20472;-61
2022/04/13 08:09:42;;;;;;;;;;;24.90;29.20;;;;;;4951091;28;20332;-60
2022/04/13 08:12:10;;;;;;;;;;;24.90;29.20;;;;;;4949983;28;19927;-61
2022/04/13 08:14:37;;;;;;;;;;;24.90;29.10;;;;;;4949231;28;20670;-59
2022/04/13 08:17:06;;;;;;;;;;;25.00;28.90;;;;;;4946938;28;19934;-61
2022/04/13 08:19:33;;;;;;;;;;;25.00;28.90;;;;;;4952026;28;20245;-61
2022/04/13 08:22:00;;;;;;;;;;;25.00;28.90;;;;;;4950396;28;19934;-63
2022/04/13 08:24:27;;;;;;;;;;;25.10;29.00;;;;;;4954149;28;19941;-61
2022/04/13 08:26:54;;;;;;;;;;;25.10;28.90;;;;;;4950060;28;19930;-61
2022/04/13 08:29:24;;;;;;;;;;;25.10;28.90;;;;;;4955034;28;19994;-59
2022/04/13 08:31:51;;;;;;;;;;;25.10;28.80;;;;;;4956907;28;19972;-59
2022/04/13 08:34:18;;;;;;;;;;;25.20;28.80;;;;;;4934542;28;19930;-60
2022/04/13 08:36:45;;;;;;;;;;;25.20;28.70;;;;;;4952746;28;19964;-61
2022/04/13 08:39:15;;;;;;;;;;;25.20;28.60;;;;;;4947041;28;19927;-61
2022/04/13 08:41:48;;;;;;;;;;;25.20;28.50;;;;;;4953750;28;19933;-61
2022/04/13 08:44:16;;;;;;;;;;;25.30;28.50;;;;;;4950598;28;20000;-61
2022/04/13 08:46:45;;;;;;;;;;;25.30;28.40;;;;;;4953071;28;19971;-61
2022/04/13 08:49:13;;;;;;;;;;;25.40;28.40;;;;;;4951493;28;19938;-61
2022/04/13 08:51:59;;;;;;;;;;;25.40;28.30;;;;;;4954616;28;19934;-60
2022/04/13 08:54:29;;;;;;;;;;;25.40;28.20;;;;;;4949037;28;19934;-61
2022/04/13 08:56:57;;;;;;;;;;;25.40;28.20;;;;;;4946637;28;19934;-60
2022/04/13 08:59:51;;;;;;;;;;;25.50;28.20;;;;;;4970880;28;20003;-62
2022/04/13 09:02:39;;;;;;;;;;;25.50;28.10;;;;;;4950310;28;19934;-61
2022/04/13 09:05:14;;;;;;;;;;;25.50;28.00;;;;;;4952025;28;19980;-60
2022/04/13 09:07:42;;;;;;;;;;;25.50;28.00;;;;;;4949233;28;19934;-60
2022/04/13 09:10:12;;;;;;;;;;;25.60;28.00;;;;;;4952057;28;19937;-61
2022/04/13 09:12:41;;;;;;;;;;;25.60;28.00;;;;;;4953171;28;20398;-61
2022/04/13 09:15:08;;;;;;;;;;;25.60;27.90;;;;;;4945228;28;19926;-60
2022/04/13 09:17:35;;;;;;;;;;;25.60;27.90;;;;;;4951133;28;19935;-60
2022/04/13 09:20:02;;;;;;;;;;;25.60;27.90;;;;;;4950747;28;19926;-61
2022/04/13 09:22:31;;;;;;;;;;;25.70;27.90;;;;;;4951706;28;20029;-60
2022/04/13 09:24:58;;;;;;;;;;;25.70;27.90;;;;;;4949973;28;19926;-61
2022/04/13 09:27:26;;;;;;;;;;;25.70;27.90;;;;;;4952048;28;19930;-60
2022/04/13 09:29:53;;;;;;;;;;;25.70;27.70;;;;;;4953407;28;19979;-60
2022/04/13 09:32:20;;;;;;;;;;;25.70;27.70;;;;;;4953867;28;19956;-60
2022/04/13 09:34:47;;;;;;;;;;;25.70;27.60;;;;;;4948834;28;19935;-60
2022/04/13 09:37:15;;;;;;;;;;;25.70;27.60;;;;;;4956448;28;19960;-60
2022/04/13 09:39:42;;;;;;;;;;;25.70;27.70;;;;;;4943608;28;19930;-61
2022/04/13 09:42:12;;;;;;;;;;;25.80;27.60;;;;;;4956047;28;19980;-61
2022/04/13 09:44:42;;;;;;;;;;;25.80;28.00;;;;;;4947789;28;20391;-61
2022/04/13 09:47:10;;;;;;;;;;;25.80;27.60;;;;;;4962303;28;19934;-60
2022/04/13 09:49:44;;;;;;;;;;;25.80;27.60;;;;;;4957796;28;19926;-61
2022/04/13 09:52:11;;;;;;;;;;;25.80;27.50;;;;;;4956433;28;19969;-60
2022/04/13 09:54:44;;;;;;;;;;;25.90;27.60;;;;;;4949479;28;20363;-61
2022/04/13 09:57:24;;;;;;;;;;;25.90;27.50;;;;;;4953425;28;19933;-61
2022/04/13 09:59:59;;;;;;;;;;;25.90;27.50;;;;;;4960646;28;19930;-62
2022/04/13 10:02:35;;;;;;;;;;;25.90;27.60;;;;;;4948412;28;19988;-60
2022/04/13 10:05:07;;;;;;;;;;;25.90;27.50;;;;;;4951697;28;19934;-62
2022/04/13 10:07:35;;;;;;;;;;;25.90;27.50;;;;;;4953397;28;19930;-61
2022/04/13 10:10:02;;;;;;;;;;;25.90;27.40;;;;;;4949822;28;20012;-62
2022/04/13 10:12:47;;;;;;;;;;;25.90;27.40;;;;;;4954511;28;20452;-62
2022/04/13 10:15:14;;;;;;;;;;;25.90;27.20;;;;;;4950060;28;19926;-62
2022/04/13 10:17:43;;;;;;;;;;;25.90;27.20;;;;;;4952380;28;19926;-62
2022/04/13 10:20:11;;;;;;;;;;;25.90;27.10;;;;;;4949149;28;19972;-62
2022/04/13 10:23:01;;;;;;;;;;;25.90;27.50;;;;;;4951869;28;19927;-62
2022/04/13 10:25:28;;;;;;;;;;;25.90;27.00;;;;;;4953929;28;19927;-62
2022/04/13 10:27:58;;;;;;;;;;;25.90;26.90;;;;;;4952611;28;19926;-62
2022/04/13 10:30:28;;;;;;;;;;;25.90;26.90;;;;;;4951676;28;19930;-62
2022/04/13 10:33:05;;;;;;;;;;;25.90;26.90;;;;;;4951415;28;20282;-62
2022/04/13 10:35:34;;;;;;;;;;;25.90;26.90;;;;;;4948571;28;20378;-63
2022/04/13 10:38:03;;;;;;;;;;;25.90;26.90;;;;;;4951031;28;20032;-63
2022/04/13 10:40:34;;;;;;;;;;;25.90;26.90;;;;;;4954508;28;19933;-62
2022/04/13 10:43:03;;;;;;;;;;;25.80;26.90;;;;;;4948953;28;20386;-62
2022/04/13 10:45:30;;;;;;;;;;;25.80;26.90;;;;;;4956127;28;19988;-62
2022/04/13 10:47:59;;;;;;;;;;;25.80;26.90;;;;;;4952322;28;20339;-63
2022/04/13 10:50:47;;;;;;;;;;;25.80;26.80;;;;;;4945162;28;19926;-62
2022/04/13 10:53:25;;;;;;;;;;;25.80;26.80;;;;;;4953022;28;19933;-62
2022/04/13 10:55:59;;;;;;;;;;;25.70;26.80;;;;;;4945203;28;19991;-62
2022/04/13 10:58:47;;;;;;;;;;;25.80;26.80;;;;;;4945694;28;19942;-62
2022/04/13 11:01:15;;;;;;;;;;;25.70;26.40;;;;;;4953098;28;20316;-62
2022/04/13 11:03:42;;;;;;;;;;;25.70;26.60;;;;;;4949562;28;19926;-61
2022/04/13 11:06:11;;;;;;;;;;;25.70;26.30;;;;;;4951334;28;19934;-62
2022/04/13 11:08:47;;;;;;;;;;;25.70;26.60;;;;;;4952784;28;19934;-61
2022/04/13 11:11:17;;;;;;;;;;;25.70;26.70;;;;;;4938393;28;19934;-62
2022/04/13 11:13:46;;;;;;;;;;;25.70;26.60;;;;;;4942917;28;20009;-62
2022/04/13 11:16:15;;;;;;;;;;;25.70;26.80;;;;;;4945338;28;20347;-62
2022/04/13 11:18:43;;;;;;;;;;;25.70;26.90;;;;;;4950823;28;20456;-61
2022/04/13 11:21:10;;;;;;;;;;;25.70;26.90;;;;;;4937997;28;19968;-61
2022/04/13 11:23:49;;;;;;;;;;;25.70;26.80;;;;;;4951490;28;20655;-62
2022/04/13 11:26:36;;;;;;;;;;;25.80;26.80;;;;;;4933051;28;20181;-62
2022/04/13 11:29:15;;;;;;;;;;;25.80;26.80;;;;;;4952370;28;20030;-62
2022/04/13 11:32:05;;;;;;;;;;;25.80;26.90;;;;;;4949919;28;20258;-60
2022/04/13 11:34:44;;;;;;;;;;;25.90;26.80;;;;;;4947250;28;22122;-60
2022/04/13 11:37:14;;;;;;;;;;;25.90;26.80;;;;;;4950947;28;19927;-61
2022/04/13 11:39:51;;;;;;;;;;;25.90;26.80;;;;;;4951546;28;19926;-60
2022/04/13 11:42:38;;;;;;;;;;;26.00;26.80;;;;;;4951356;28;19976;-62
2022/04/13 11:45:14;;;;;;;;;;;26.00;26.70;;;;;;4938246;28;19927;-62
2022/04/13 11:47:43;;;;;;;;;;;26.00;26.70;;;;;;4955501;28;19930;-62
2022/04/13 11:50:22;;;;;;;;;;;26.00;26.70;;;;;;4933037;28;20583;-62
2022/04/13 11:53:03;;;;;;;;;;;26.00;26.70;;;;;;4950176;28;19976;-61
2022/04/13 11:55:43;;;;;;;;;;;26.00;26.80;;;;;;4931823;28;20030;-63
2022/04/13 11:58:21;;;;;;;;;;;26.00;26.80;;;;;;4947922;28;19996;-62
2022/04/13 12:01:03;;;;;;;;;;;26.00;26.80;;;;;;4952795;28;21235;-61
2022/04/13 12:03:32;;;;;;;;;;;26.00;26.70;;;;;;4950395;28;19941;-62
2022/04/13 12:06:07;;;;;;;;;;;26.10;26.80;;;;;;4948073;28;20366;-63
2022/04/13 12:08:38;;;;;;;;;;;26.10;26.80;;;;;;4954161;28;19926;-63
2022/04/13 12:11:12;;;;;;;;;;;26.10;26.90;;;;;;4947680;28;19980;-59
2022/04/13 12:13:51;;;;;;;;;;;26.10;27.00;;;;;;4950995;28;20409;-60
2022/04/13 12:16:20;;;;;;;;;;;26.10;27.00;;;;;;4955335;28;20548;-58
2022/04/13 12:18:48;;;;;;;;;;;26.20;27.00;;;;;;4934210;28;19930;-60
2022/04/13 12:21:17;;;;;;;;;;;26.20;27.10;;;;;;4952623;28;20317;-61
2022/04/13 12:23:44;;;;;;;;;;;26.20;26.30;;;;;;4952703;28;19942;-60
2022/04/13 12:26:11;;;;;;;;;;;26.20;26.70;;;;;;4946463;28;20386;-61
2022/04/13 12:28:38;;;;;;;;;;;26.20;26.70;;;;;;4954079;28;19934;-61
2022/04/13 12:31:07;;;;;;;;;;;26.10;26.60;;;;;;4947932;28;19980;-61
2022/04/13 12:33:36;;;;;;;;;;;26.10;26.70;;;;;;4967239;28;19971;-62
2022/04/13 12:36:04;;;;;;;;;;;26.00;26.70;;;;;;4944401;28;19973;-61
2022/04/13 12:38:39;;;;;;;;;;;26.00;26.80;;;;;;4951659;28;20318;-61
2022/04/13 12:41:08;;;;;;;;;;;26.00;26.90;;;;;;4951310;28;19934;-62
2022/04/13 12:43:38;;;;;;;;;;;26.00;26.60;;;;;;4956033;28;19930;-61
2022/04/13 12:46:07;;;;;;;;;;;26.00;26.80;;;;;;4954244;28;20017;-61
2022/04/13 12:48:35;;;;;;;;;;;26.00;26.80;;;;;;4950147;28;19926;-62
2022/04/13 12:51:03;;;;;;;;;;;26.00;26.70;;;;;;4954578;28;19987;-61
2022/04/13 12:53:44;;;;;;;;;;;26.00;26.70;;;;;;4950826;28;19988;-63
2022/04/13 12:56:19;;;;;;;;;;;26.00;26.70;;;;;;4951379;28;19938;-63
2022/04/13 12:58:46;;;;;;;;;;;26.00;26.80;;;;;;4949422;28;20665;-61
2022/04/13 13:01:23;;;;;;;;;;;26.00;26.90;;;;;;4950083;28;20041;-63
2022/04/13 13:03:51;;;;;;;;;;;26.00;26.90;;;;;;4952326;28;20013;-62
2022/04/13 13:06:19;;;;;;;;;;;26.00;26.70;;;;;;4948096;28;20306;-61
2022/04/13 13:08:56;;;;;;;;;;;26.00;26.80;;;;;;4948695;28;19926;-61
2022/04/13 13:11:27;;;;;;;;;;;26.00;26.90;;;;;;4950921;28;19927;-62
2022/04/13 13:14:11;;;;;;;;;;;26.00;27.00;;;;;;4956009;28;19973;-62
2022/04/13 13:16:45;;;;;;;;;;;26.00;27.00;;;;;;4959292;28;19930;-61
2022/04/13 13:19:14;;;;;;;;;;;26.00;26.90;;;;;;4949437;28;19926;-63
2022/04/13 13:22:01;;;;;;;;;;;26.00;26.90;;;;;;4959300;28;19934;-63
2022/04/13 13:24:29;;;;;;;;;;;26.00;26.90;;;;;;4948558;28;20386;-61
2022/04/13 13:26:56;;;;;;;;;;;26.00;26.90;;;;;;4951862;28;19964;-61
2022/04/13 13:29:23;;;;;;;;;;;26.00;26.80;;;;;;4944730;28;19926;-62
2022/04/13 13:31:50;;;;;;;;;;;26.00;26.80;;;;;;4950480;28;19973;-60
2022/04/13 13:34:22;;;;;;;;;;;26.00;26.80;;;;;;4950331;28;20025;-61
2022/04/13 13:36:58;;;;;;;;;;;26.00;26.80;;;;;;4950179;28;20040;-61
2022/04/13 13:39:26;;;;;;;;;;;26.00;26.80;;;;;;4960731;28;20358;-61
2022/04/13 13:42:03;;;;;;;;;;;25.90;26.70;;;;;;4950872;28;19930;-61
2022/04/13 13:44:30;;;;;;;;;;;25.90;26.70;;;;;;4955724;28;19983;-61
2022/04/13 13:46:59;;;;;;;;;;;25.90;26.70;;;;;;4951855;28;19939;-61
2022/04/13 13:49:26;;;;;;;;;;;25.90;26.90;;;;;;4948153;28;19926;-60
2022/04/13 13:51:57;;;;;;;;;;;25.90;26.70;;;;;;4940551;28;20382;-61
2022/04/13 13:54:25;;;;;;;;;;;25.90;26.70;;;;;;4952671;28;19938;-62
2022/04/13 13:56:53;;;;;;;;;;;25.90;26.70;;;;;;4947870;28;19966;-61
2022/04/13 13:59:20;;;;;;;;;;;25.90;26.70;;;;;;4948917;28;19973;-61
2022/04/13 14:01:47;;;;;;;;;;;25.90;26.70;;;;;;4946074;28;19935;-61
2022/04/13 14:04:15;;;;;;;;;;;25.90;26.70;;;;;;4949598;28;20647;-62
2022/04/13 14:06:42;;;;;;;;;;;25.90;26.80;;;;;;4950211;28;19926;-62
2022/04/13 14:09:11;;;;;;;;;;;26.00;26.90;;;;;;4965009;28;20279;-62
2022/04/13 14:11:39;;;;;;;;;;;26.00;26.90;;;;;;4955474;28;20445;-62
2022/04/13 14:14:06;;;;;;;;;;;26.00;26.80;;;;;;4952951;28;20329;-61
2022/04/13 14:16:33;;;;;;;;;;;26.00;26.80;;;;;;4954335;28;19934;-63
2022/04/13 14:19:00;;;;;;;;;;;26.00;27.00;;;;;;4949725;28;19988;-61
2022/04/13 14:21:28;;;;;;;;;;;26.00;26.90;;;;;;4951140;28;20211;-60
2022/04/13 14:23:55;;;;;;;;;;;26.00;27.00;;;;;;4949667;28;19926;-60
2022/04/13 14:26:22;;;;;;;;;;;26.00;27.10;;;;;;4956151;28;20379;-60
2022/04/13 14:28:50;;;;;;;;;;;26.00;27.10;;;;;;4946746;28;19988;-61